Burt Lake, Michigan
Current Conditions -  °F | °C
As of 2:54 PM on Thursday 27 Nov 2014 (Local Time) from KPLN Reporting Station
Overcast Overcast  
Wind Chill:   Ceiling: 4000
Heat Index: 20°   Visibility: 10mi
Dew Point:   Wind: 15mph
Humidity: 60%   Direction: 300°WNW
Pressure: 30.21"   Gusts: NA
Location:  45.44°N, 84.71°W
Report Text: KPLN 271954Z AUTO 30013KT 10SM OVC040 M07/M13 A3021 RMK AO2 SLP244 T10671133
Loading
Personal Weather Stations






























Interactive Weather Map New forecast layout! Learn more

10-Day Weather Forecast

Advertisements
Track Severe Weather on mobile